Tunis, Tunisia
Current Conditions -  °F | °C
As of 5:00 AM on Wednesday 26 Nov 2014 (Local Time) from DTTA Reporting Station
Broken Clouds Broken Clouds  
Wind Chill: 18°   Ceiling: 3600
Heat Index: 18°   Visibility: 6mi
Dew Point: 12°   Wind: 3mph
Humidity: 68%   Direction: 180°S
Pressure: 30"   Gusts: NA
Location:  36.84°N, 10.22°E
Report Text: DTTA 260400Z 18003KT 9999 SCT026 BKN036 18/12 Q1016 NOSIG
Loading
Personal Weather Stations






























Interactive Weather Map New forecast layout! Learn more

10-Day Weather Forecast

Advertisements
Track Severe Weather on mobile